Time;durP1;ratioP1;P1;durP2;ratioP2;P2;SDS_P1;SDS_P2;PMS_P1;PMS_P2;Temp;Humidity;BMP_temperature;BMP_pressure;BME280_temperature;BME280_humidity;BME280_pressure;Samples;Min_cycle;Max_cycle;Signal;HPM_P1;HPM_P2
2022/06/25 00:01:35;;;;;;;3.63;3.13;;;;;;;19.18;98.07;97869.97;4139887;28;20642;-90
2022/06/25 00:03:38;;;;;;;3.77;2.80;;;;;;;19.18;98.22;97881.34;4130785;28;20701;-92
2022/06/25 00:05:41;;;;;;;6.83;3.17;;;;;;;19.18;97.75;97878.72;4122137;28;20671;-91
2022/06/25 00:07:44;;;;;;;5.23;2.80;;;;;;;19.17;97.18;97879.72;4126021;28;20662;-92
2022/06/25 00:09:49;;;;;;;3.73;2.80;;;;;;;19.17;97.33;97871.78;4127702;28;20690;-91
2022/06/25 00:14:13;;;;;;;4.30;2.80;;;;;;;19.13;97.53;97872.28;4122781;28;20729;-93
2022/06/25 00:16:16;;;;;;;5.27;2.90;;;;;;;19.10;97.12;97875.25;4120524;28;20718;-92
2022/06/25 00:18:19;;;;;;;4.87;2.87;;;;;;;19.08;97.23;97866.66;4126066;28;20634;-93
2022/06/25 00:20:23;;;;;;;5.33;2.90;;;;;;;19.05;96.96;97873.09;4124526;28;20741;-92
2022/06/25 00:22:27;;;;;;;7.97;3.90;;;;;;;19.02;97.12;97880.53;4117444;28;20634;-91
2022/06/25 00:24:30;;;;;;;6.70;3.13;;;;;;;19.00;97.70;97877.16;4117843;28;20701;-92
2022/06/25 00:26:35;;;;;;;6.20;3.30;;;;;;;18.97;97.59;97877.47;4124230;28;20673;-91
2022/06/25 00:28:39;;;;;;;4.90;3.10;;;;;;;18.93;96.62;97870.88;4136952;28;20696;-93
2022/06/25 00:30:42;;;;;;;6.77;3.20;;;;;;;18.94;96.22;97873.38;4140052;28;20708;-92
2022/06/25 00:32:45;;;;;;;8.00;2.83;;;;;;;18.92;97.00;97871.84;4125832;28;20638;-92
2022/06/25 00:34:49;;;;;;;4.70;2.93;;;;;;;18.88;96.64;97865.22;4125443;28;21013;-92
2022/06/25 00:36:52;;;;;;;7.30;3.27;;;;;;;18.85;96.86;97873.47;4126565;28;20649;-91
2022/06/25 00:38:56;;;;;;;5.47;3.00;;;;;;;18.82;97.93;97867.69;4129084;28;20640;-91
2022/06/25 00:40:59;;;;;;;6.17;2.87;;;;;;;18.80;96.40;97869.69;4127614;28;20655;-92
2022/06/25 00:43:04;;;;;;;7.57;3.23;;;;;;;18.77;97.45;97870.81;4122698;28;20684;-92
2022/06/25 00:45:07;;;;;;;5.83;2.90;;;;;;;18.75;97.57;97882.53;4128045;28;20640;-92
2022/06/25 00:47:14;;;;;;;4.50;3.20;;;;;;;18.74;97.79;97884.34;4129417;28;20640;-92
2022/06/25 00:49:17;;;;;;;6.50;3.40;;;;;;;18.72;97.17;97891.63;4123186;28;20633;-92
2022/06/25 00:51:21;;;;;;;6.10;3.10;;;;;;;18.70;97.34;97884.81;4122715;28;20685;-93
2022/06/25 00:53:25;;;;;;;3.70;3.10;;;;;;;18.69;96.84;97883.19;4119640;28;20646;-93
2022/06/25 00:55:30;;;;;;;4.80;3.37;;;;;;;18.68;98.49;97887.63;4134833;28;20648;-92
2022/06/25 00:57:35;;;;;;;3.90;3.20;;;;;;;18.66;97.30;97886.97;4119076;28;20696;-92
2022/06/25 00:59:44;;;;;;;3.40;3.10;;;;;;;18.66;97.21;97894.91;4125728;28;20644;-91
2022/06/25 01:01:47;;;;;;;6.70;3.23;;;;;;;18.64;97.80;97891.59;4137274;28;20996;-92
2022/06/25 01:03:50;;;;;;;13.87;3.17;;;;;;;18.60;97.16;97887.59;4122404;28;20649;-92
2022/06/25 01:05:53;;;;;;;4.40;2.90;;;;;;;18.58;97.69;97886.94;4148521;28;20699;-91
2022/06/25 01:07:56;;;;;;;6.17;2.60;;;;;;;18.54;96.63;97888.25;4119302;28;20643;-92
2022/06/25 01:09:59;;;;;;;5.83;2.83;;;;;;;18.51;97.08;97882.47;4123830;28;21621;-91
2022/06/25 01:12:03;;;;;;;4.30;3.00;;;;;;;18.47;96.58;97889.84;4142150;28;21082;-92
2022/06/25 01:14:09;;;;;;;4.87;3.10;;;;;;;18.46;96.96;97882.06;4135543;28;21273;-92
2022/06/25 01:16:14;;;;;;;5.23;3.10;;;;;;;18.42;97.62;97880.75;4116248;28;21013;-92
2022/06/25 01:18:18;;;;;;;4.83;3.27;;;;;;;18.40;97.25;97877.44;4124352;28;20770;-89
2022/06/25 01:20:23;;;;;;;7.20;3.10;;;;;;;18.40;97.06;97889.81;4132700;28;20682;-93
2022/06/25 01:22:28;;;;;;;4.17;3.20;;;;;;;18.40;98.03;97888.00;4134616;28;20644;-92
2022/06/25 01:24:32;;;;;;;7.23;3.97;;;;;;;18.38;97.61;97889.16;4126189;28;20643;-91
2022/06/25 01:26:36;;;;;;;4.10;2.80;;;;;;;18.39;97.34;97889.00;4123731;28;20695;-92
2022/06/25 01:28:39;;;;;;;4.20;3.17;;;;;;;18.39;97.35;97890.78;4136249;28;20639;-91
2022/06/25 01:30:42;;;;;;;5.13;3.40;;;;;;;18.38;97.59;97894.44;4119994;28;21638;-93
2022/06/25 01:32:46;;;;;;;6.27;3.17;;;;;;;18.37;98.20;97892.78;4122453;28;20703;-93
2022/06/25 01:34:52;;;;;;;3.43;3.13;;;;;;;18.36;97.15;97891.97;4114699;28;20642;-93
2022/06/25 01:36:55;;;;;;;11.80;3.33;;;;;;;18.36;97.19;97893.75;4118076;28;21013;-92
2022/06/25 01:39:00;;;;;;;6.53;3.47;;;;;;;18.35;97.13;97895.56;4141314;28;20715;-91
2022/06/25 01:41:04;;;;;;;4.87;3.30;;;;;;;18.34;96.59;97903.66;4135708;28;20659;-92
2022/06/25 01:43:07;;;;;;;8.70;4.80;;;;;;;18.31;96.70;97893.41;4118226;28;21227;-92
2022/06/25 01:45:11;;;;;;;4.80;2.80;;;;;;;18.30;97.18;97902.31;4122480;28;20657;-92
2022/06/25 01:47:14;;;;;;;7.50;3.33;;;;;;;18.26;97.50;97903.63;4122515;28;20633;-93
2022/06/25 01:49:17;;;;;;;8.67;3.37;;;;;;;18.20;97.49;97893.66;4127185;28;21043;-92
2022/06/25 01:51:22;;;;;;;11.73;3.87;;;;;;;18.15;96.01;97903.88;4123110;28;20720;-92
2022/06/25 01:53:25;;;;;;;3.50;2.87;;;;;;;18.12;96.74;97902.34;4125008;28;20672;-91
2022/06/25 01:55:29;;;;;;;5.60;3.20;;;;;;;18.12;97.10;97899.69;4117167;28;20641;-92
2022/06/25 01:57:33;;;;;;;7.50;3.03;;;;;;;18.10;97.43;97904.31;4125292;28;20664;-92
2022/06/25 01:59:37;;;;;;;5.50;3.10;;;;;;;18.09;96.43;97899.19;4141825;28;20706;-92
2022/06/25 02:01:40;;;;;;;6.40;3.30;;;;;;;18.07;96.83;97895.84;4123050;28;20663;-92
2022/06/25 02:03:44;;;;;;;6.50;3.50;;;;;;;18.05;96.61;97898.66;4125407;28;20637;-92
2022/06/25 02:05:59;;;;;;;4.97;3.40;;;;;;;18.05;97.24;97895.19;4125000;28;20667;-92
2022/06/25 02:08:03;;;;;;;6.60;3.50;;;;;;;18.04;97.05;97906.72;4117640;28;20985;-92
2022/06/25 02:10:07;;;;;;;3.60;3.10;;;;;;;18.04;97.55;97902.28;4117825;28;20651;-92
2022/06/25 02:12:12;;;;;;;6.93;3.40;;;;;;;18.01;96.76;97907.88;4122414;28;21245;-92
2022/06/25 02:14:15;;;;;;;3.60;3.30;;;;;;;17.99;97.42;97911.66;4126637;28;21003;-92
2022/06/25 02:16:20;;;;;;;5.20;3.10;;;;;;;17.96;96.90;97917.25;4136035;28;20646;-91
2022/06/25 02:18:24;;;;;;;4.13;3.00;;;;;;;17.92;97.93;97914.09;4122412;28;22153;-93
2022/06/25 02:20:28;;;;;;;4.73;3.10;;;;;;;17.89;96.75;97910.09;4125117;28;20639;-92
2022/06/25 02:22:31;;;;;;;4.97;4.07;;;;;;;17.87;96.99;97912.06;4143908;28;20638;-92
2022/06/25 02:24:35;;;;;;;5.53;3.10;;;;;;;17.83;97.24;97910.69;4137357;28;20636;-92
2022/06/25 02:26:38;;;;;;;6.60;3.60;;;;;;;17.77;97.01;97909.53;4149758;28;20694;-92
2022/06/25 02:28:42;;;;;;;5.33;3.10;;;;;;;17.74;97.25;97912.47;4120921;28;20673;-92
2022/06/25 02:30:46;;;;;;;5.17;3.50;;;;;;;17.71;97.09;97925.97;4121338;28;20640;-92
2022/06/25 02:32:49;;;;;;;7.10;3.60;;;;;;;17.71;97.29;97923.31;4115941;28;20644;-92
2022/06/25 02:34:52;;;;;;;5.47;3.37;;;;;;;17.67;97.10;97924.59;4121859;28;20631;-91
2022/06/25 02:36:56;;;;;;;8.20;3.10;;;;;;;17.66;97.34;97924.75;4123032;28;20754;-92
2022/06/25 02:39:02;;;;;;;7.07;3.23;;;;;;;17.65;97.07;97923.94;4120622;28;20669;-93
2022/06/25 02:41:06;;;;;;;6.20;3.37;;;;;;;17.62;97.84;97915.47;4119105;28;20651;-93
2022/06/25 02:43:11;;;;;;;7.37;3.40;;;;;;;17.60;97.46;97922.72;4137524;28;20649;-92
2022/06/25 02:45:19;;;;;;;6.43;3.33;;;;;;;17.58;97.13;97924.69;4126497;28;20635;-91
2022/06/25 02:47:25;;;;;;;7.73;3.57;;;;;;;17.53;97.07;97917.22;4125209;28;20740;-93
2022/06/25 02:49:45;;;;;;;6.27;3.63;;;;;;;17.56;97.87;97926.63;4139099;28;21185;-91
2022/06/25 02:51:48;;;;;;;5.37;3.70;;;;;;;17.53;97.65;97926.97;4121761;28;20645;-91
2022/06/25 02:53:51;;;;;;;6.37;3.27;;;;;;;17.49;97.80;97930.88;4122432;28;20634;-92
2022/06/25 03:00:39;;;;;;;5.47;3.00;;;;;;;17.45;97.00;97929.50;4118358;28;20643;-93
2022/06/25 03:02:43;;;;;;;4.07;3.30;;;;;;;17.45;96.73;97923.41;4124253;28;20647;-91
2022/06/25 03:04:47;;;;;;;4.43;3.23;;;;;;;17.45;97.04;97928.69;4122111;28;21021;-92
2022/06/25 03:06:50;;;;;;;5.47;3.20;;;;;;;17.44;96.94;97919.09;4143875;28;21356;-92
2022/06/25 03:08:53;;;;;;;4.10;2.90;;;;;;;17.42;97.05;97923.72;4130828;28;20690;-91
2022/06/25 03:10:57;;;;;;;4.70;3.00;;;;;;;17.44;98.02;97933.13;4128946;28;20744;-92
2022/06/25 03:13:01;;;;;;;6.20;3.50;;;;;;;17.44;97.87;97933.13;4125655;28;20675;-92
2022/06/25 03:15:06;;;;;;;3.50;3.10;;;;;;;17.43;98.11;97923.56;4120697;28;21085;-91
2022/06/25 03:17:11;;;;;;;7.30;3.60;;;;;;;17.46;97.42;97933.81;4126303;28;21233;-92
2022/06/25 03:19:45;;;;;;;3.70;2.70;;;;;;;17.44;97.50;97933.13;4139915;28;21196;-92
2022/06/25 03:22:00;;;;;;;4.30;3.07;;;;;;;17.43;97.05;97930.66;4142264;28;20634;-92
2022/06/25 03:24:05;;;;;;;3.70;3.10;;;;;;;17.38;97.25;97932.88;4124744;28;20646;-92
2022/06/25 03:26:10;;;;;;;5.30;3.30;;;;;;;17.36;97.07;97930.41;4135015;28;20695;-91
2022/06/25 03:28:14;;;;;;;4.20;3.40;;;;;;;17.34;97.30;97932.38;4122132;28;20652;-92
2022/06/25 03:30:20;;;;;;;5.23;3.03;;;;;;;17.35;96.90;97925.28;4128864;28;20627;-92
2022/06/25 03:32:26;;;;;;;4.17;3.50;;;;;;;17.35;96.64;97925.28;4122471;28;20646;-92
2022/06/25 03:34:58;;;;;;;4.57;2.93;;;;;;;17.33;97.09;97940.44;4127466;28;20635;-92
2022/06/25 03:37:06;;;;;;;6.80;3.30;;;;;;;17.31;96.89;97935.31;4129247;28;20718;-92
2022/06/25 03:39:09;;;;;;;4.03;3.40;;;;;;;17.31;97.10;97934.50;4141933;28;21222;-91
2022/06/25 03:43:43;;;;;;;5.43;3.67;;;;;;;17.28;97.83;97937.44;4140429;28;20645;-92
2022/06/25 03:45:46;;;;;;;3.23;2.93;;;;;;;17.26;97.42;97936.72;4133372;28;20633;-92
2022/06/25 03:47:52;;;;;;;4.20;3.80;;;;;;;17.25;97.47;97935.09;4132041;28;20664;-92
2022/06/25 03:49:58;;;;;;;3.40;3.10;;;;;;;17.23;97.88;97934.38;4137862;28;20641;-90
2022/06/25 03:52:02;;;;;;;5.10;3.23;;;;;;;17.21;97.40;97941.63;4132322;28;20652;-92
2022/06/25 03:54:06;;;;;;;5.80;3.80;;;;;;;17.19;96.87;97943.56;4124274;28;20740;-92
2022/06/25 03:56:09;;;;;;;5.63;3.67;;;;;;;17.20;96.65;97951.34;4136122;28;21220;-91
2022/06/25 03:58:17;;;;;;;3.53;3.07;;;;;;;17.23;97.30;97956.31;4123607;28;20782;-90
2022/06/25 04:00:20;;;;;;;6.20;3.40;;;;;;;17.25;97.78;97953.53;4123887;28;20674;-90
2022/06/25 04:02:30;;;;;;;6.40;3.43;;;;;;;17.26;97.34;97949.91;4135382;28;20683;-91
2022/06/25 04:05:02;;;;;;;6.70;4.00;;;;;;;17.25;96.95;97956.19;4134500;28;20821;-91
2022/06/25 04:07:07;;;;;;;3.50;3.10;;;;;;;17.20;97.12;97951.34;4128832;28;20675;-92
2022/06/25 04:09:11;;;;;;;5.87;3.90;;;;;;;17.25;96.78;97950.91;4112839;28;20725;-90
2022/06/25 04:11:14;;;;;;;6.93;3.60;;;;;;;17.27;96.89;97954.22;4121760;28;20757;-92
2022/06/25 04:13:20;;;;;;;4.50;4.10;;;;;;;17.28;96.60;97954.06;4126404;28;21262;-91
2022/06/25 04:15:23;;;;;;;4.53;3.53;;;;;;;17.32;96.83;97962.50;4128100;28;20639;-92
2022/06/25 04:17:27;;;;;;;4.57;3.80;;;;;;;17.33;97.09;97953.63;4124181;28;20706;-91
2022/06/25 04:19:39;;;;;;;5.13;3.93;;;;;;;17.35;96.34;97960.41;4127553;28;20658;-91
2022/06/25 04:21:49;;;;;;;6.17;3.50;;;;;;;17.40;96.58;97962.59;4127059;28;20720;-91
2022/06/25 04:23:52;;;;;;;4.53;4.00;;;;;;;17.43;96.58;97964.94;4128360;28;20689;-91
2022/06/25 04:25:59;;;;;;;5.37;3.83;;;;;;;17.46;96.93;97959.38;4142653;28;20644;-91
2022/06/25 04:30:24;;;;;;;3.80;3.40;;;;;;;17.46;96.83;97961.00;4130421;28;20728;-91
2022/06/25 04:32:29;;;;;;;6.37;3.70;;;;;;;17.49;97.25;97965.16;4126187;28;20700;-92
2022/06/25 04:34:46;;;;;;;3.33;3.03;;;;;;;17.53;97.33;97974.44;4123590;28;20725;-92
2022/06/25 04:36:51;;;;;;;3.60;3.30;;;;;;;17.54;96.86;97968.16;4122081;28;20723;-92
2022/06/25 04:38:59;;;;;;;3.90;3.03;;;;;;;17.54;97.21;97968.97;4129491;28;20685;-91
2022/06/25 04:41:02;;;;;;;3.97;3.57;;;;;;;17.55;97.02;97968.00;4132701;28;20631;-92
2022/06/25 04:43:05;;;;;;;4.80;3.73;;;;;;;17.57;97.76;97967.88;4119086;28;20903;-92
2022/06/25 04:45:09;;;;;;;3.87;3.57;;;;;;;17.61;98.32;97972.69;4123803;28;20631;-91
2022/06/25 04:47:40;;;;;;;4.20;3.67;;;;;;;17.64;97.60;97972.38;4140463;28;21059;-91
2022/06/25 04:50:07;;;;;;;5.10;4.13;;;;;;;17.69;98.31;97974.56;4140429;28;20630;-92
2022/06/25 04:52:12;;;;;;;3.97;3.53;;;;;;;17.71;97.48;97977.88;4126153;28;20685;-92
2022/06/25 04:54:15;;;;;;;4.77;4.17;;;;;;;17.74;97.32;97981.06;4125921;28;20678;-91
2022/06/25 04:56:24;;;;;;;4.47;4.07;;;;;;;17.78;98.00;97990.31;4129480;28;20664;-91
2022/06/25 04:58:27;;;;;;;4.47;4.07;;;;;;;17.80;97.54;97988.38;4131585;28;20637;-92
2022/06/25 05:00:49;;;;;;;5.13;4.67;;;;;;;17.87;97.82;97997.31;4135502;28;20619;-92
2022/06/25 05:02:52;;;;;;;4.60;4.10;;;;;;;17.89;97.45;97992.75;4120898;28;21263;-90
2022/06/25 05:04:57;;;;;;;4.60;4.20;;;;;;;17.92;97.51;98003.00;4141407;28;21140;-91
2022/06/25 05:07:01;;;;;;;6.80;4.23;;;;;;;17.94;97.18;98007.13;4139204;28;20645;-91
2022/06/25 05:09:06;;;;;;;4.93;4.40;;;;;;;18.00;96.68;98010.97;4143140;28;20640;-92
2022/06/25 05:11:10;;;;;;;4.73;4.03;;;;;;;18.04;97.06;98005.25;4133938;28;20735;-92
2022/06/25 05:13:13;;;;;;;4.80;4.30;;;;;;;18.11;97.34;98016.84;4137805;28;21259;-92
2022/06/25 05:15:19;;;;;;;5.47;4.43;;;;;;;18.25;97.18;98012.84;4137487;28;20639;-92
2022/06/25 05:17:22;;;;;;;13.30;5.20;;;;;;;18.39;97.68;98009.66;4139505;28;20658;-93
2022/06/25 05:19:26;;;;;;;5.03;4.53;;;;;;;18.44;96.56;98011.69;4128344;28;21317;-92
2022/06/25 05:21:29;;;;;;;6.30;5.33;;;;;;;18.48;95.61;98007.75;4127093;28;20654;-93
2022/06/25 05:23:34;;;;;;;5.37;4.63;;;;;;;18.53;95.99;98010.75;4126245;28;20648;-92
2022/06/25 05:25:40;;;;;;;4.70;4.23;;;;;;;18.51;95.57;98015.38;4142047;28;20666;-91
2022/06/25 05:27:43;;;;;;;5.40;4.40;;;;;;;18.48;95.46;98015.66;4121775;28;20667;-93
2022/06/25 05:29:46;;;;;;;5.40;4.40;;;;;;;18.52;95.80;98011.75;4115892;28;20647;-92
2022/06/25 05:31:49;;;;;;;4.30;3.90;;;;;;;18.61;95.82;98024.03;4133402;28;20639;-92
2022/06/25 05:33:53;;;;;;;4.23;3.83;;;;;;;18.68;96.05;98009.19;4128018;28;20687;-92
2022/06/25 05:35:56;;;;;;;4.60;4.20;;;;;;;18.83;95.56;98012.09;4128868;28;20635;-92
2022/06/25 05:37:59;;;;;;;5.50;4.13;;;;;;;19.02;96.53;98010.91;4123313;28;20658;-92
2022/06/25 05:40:02;;;;;;;4.87;4.20;;;;;;;19.27;96.78;98012.63;4145620;28;20658;-93
2022/06/25 05:42:07;;;;;;;3.97;3.50;;;;;;;19.60;96.54;98019.69;4128143;28;20735;-92
2022/06/25 05:44:10;;;;;;;4.27;3.87;;;;;;;19.91;93.81;98026.91;4126006;28;20712;-93
2022/06/25 05:46:13;;;;;;;6.17;3.80;;;;;;;20.26;93.59;98026.59;4132887;28;20625;-92
2022/06/25 05:48:16;;;;;;;4.00;3.23;;;;;;;20.58;91.98;98036.19;4123155;28;20645;-92
2022/06/25 05:50:19;;;;;;;4.20;3.80;;;;;;;20.92;91.17;98034.16;4128250;28;21234;-92
2022/06/25 05:52:23;;;;;;;4.30;3.90;;;;;;;21.23;91.15;98043.00;4139445;28;20647;-92
2022/06/25 05:54:26;;;;;;;3.60;3.30;;;;;;;21.48;89.06;98043.56;4127070;28;21016;-91
2022/06/25 05:56:30;;;;;;;4.73;3.77;;;;;;;21.70;88.42;98037.50;4141162;28;20647;-92
2022/06/25 05:58:34;;;;;;;3.60;3.00;;;;;;;21.87;87.40;98041.72;4121719;28;21291;-92
2022/06/25 06:00:37;;;;;;;3.67;3.23;;;;;;;22.16;86.69;98040.03;4121961;28;20654;-91
2022/06/25 06:03:07;;;;;;;5.03;3.00;;;;;;;22.50;86.04;98040.44;4123251;28;20705;-92
2022/06/25 06:05:10;;;;;;;5.27;2.80;;;;;;;22.68;84.53;98052.41;4128245;28;21279;-93
2022/06/25 06:07:13;;;;;;;2.97;2.67;;;;;;;22.85;82.55;98046.75;4128705;28;20645;-93
2022/06/25 06:09:17;;;;;;;4.27;2.50;;;;;;;22.91;81.37;98046.03;4124404;28;20630;-92
2022/06/25 06:11:20;;;;;;;4.60;2.90;;;;;;;23.05;79.67;98049.72;4120296;28;20677;-93
2022/06/25 06:13:23;;;;;;;3.43;2.47;;;;;;;23.19;80.83;98050.53;4129145;28;20637;-91
2022/06/25 06:15:28;;;;;;;2.20;2.00;;;;;;;23.23;81.06;98045.69;4124537;28;20634;-91
2022/06/25 06:17:31;;;;;;;6.60;2.17;;;;;;;23.18;80.72;98055.25;4127234;28;20645;-93
2022/06/25 06:19:35;;;;;;;2.50;1.97;;;;;;;23.21;80.93;98045.88;4123325;28;20640;-91
2022/06/25 06:21:38;;;;;;;3.40;1.90;;;;;;;23.14;80.02;98060.13;4121586;28;21284;-92
2022/06/25 06:23:41;;;;;;;3.73;2.27;;;;;;;23.15;80.38;98060.94;4126552;28;20993;-91
2022/06/25 06:25:45;;;;;;;3.93;1.83;;;;;;;23.60;80.59;98064.22;4127094;28;20714;-92
2022/06/25 06:27:48;;;;;;;4.23;2.07;;;;;;;24.04;81.76;98069.31;4128424;28;20631;-91
2022/06/25 06:29:57;;;;;;;2.97;1.90;;;;;;;24.39;78.36;98071.13;4130119;28;20643;-92
2022/06/25 06:32:02;;;;;;;2.43;1.90;;;;;;;24.69;76.12;98073.47;4129436;28;21033;-91
2022/06/25 06:34:05;;;;;;;3.53;2.40;;;;;;;24.94;75.55;98054.16;4126431;28;20728;-93
2022/06/25 06:36:08;;;;;;;3.10;2.20;;;;;;;25.18;73.33;98062.56;4131325;28;21064;-92
2022/06/25 06:38:11;;;;;;;2.70;2.13;;;;;;;25.36;72.07;98062.84;4128133;28;20645;-92
2022/06/25 06:40:15;;;;;;;2.47;1.90;;;;;;;25.53;72.88;98058.84;4125988;28;20673;-91
2022/06/25 06:42:18;;;;;;;2.40;2.00;;;;;;;25.68;73.63;98063.06;4132361;28;20642;-93
2022/06/25 06:44:22;;;;;;;3.03;2.13;;;;;;;25.84;72.87;98062.72;4117567;28;20646;-93
2022/06/25 06:46:25;;;;;;;2.30;1.87;;;;;;;26.02;71.10;98065.66;4124482;28;20634;-91
2022/06/25 06:48:30;;;;;;;3.03;2.10;;;;;;;26.20;70.67;98065.91;4142575;28;21896;-92
2022/06/25 06:50:33;;;;;;;2.63;2.20;;;;;;;26.32;70.13;98065.13;4125693;28;20638;-90
2022/06/25 06:52:37;;;;;;;3.37;1.90;;;;;;;26.44;68.82;98076.09;4142301;28;20638;-93
2022/06/25 06:54:40;;;;;;;5.77;2.20;;;;;;;26.54;69.61;98069.31;4124139;28;20721;-91
2022/06/25 06:56:43;;;;;;;2.77;2.10;;;;;;;26.66;67.52;98071.16;4140014;28;20687;-92
2022/06/25 06:58:47;;;;;;;2.97;1.90;;;;;;;26.77;68.88;98069.72;4141275;28;20750;-93
2022/06/25 07:00:50;;;;;;;2.30;2.10;;;;;;;26.91;68.31;98074.06;4127143;28;21269;-91
2022/06/25 07:02:53;;;;;;;2.17;1.90;;;;;;;26.99;68.75;98069.34;4129203;28;20623;-91
2022/06/25 07:04:58;;;;;;;2.10;1.90;;;;;;;27.17;71.01;98072.22;4134581;28;20648;-93
2022/06/25 07:07:01;;;;;;;4.10;1.93;;;;;;;27.21;68.86;98071.59;4141799;28;20635;-92
2022/06/25 07:09:04;;;;;;;3.53;2.40;;;;;;;27.26;67.33;98069.09;4157355;28;20733;-92
2022/06/25 07:11:28;;;;;;;2.97;2.20;;;;;;;27.37;70.80;98068.44;4122780;28;20712;-90
2022/06/25 07:13:31;;;;;;;3.57;2.30;;;;;;;27.51;68.89;98070.09;4146180;28;20643;-93
2022/06/25 07:15:34;;;;;;;2.50;2.30;;;;;;;27.60;67.95;98068.81;4127981;28;20677;-91
2022/06/25 07:17:37;;;;;;;2.87;1.90;;;;;;;27.64;66.54;98064.69;4130498;28;20741;-92
2022/06/25 07:19:40;;;;;;;2.33;1.90;;;;;;;27.67;66.38;98064.28;4127820;28;20652;-93
2022/06/25 07:21:45;;;;;;;3.33;1.90;;;;;;;27.66;66.72;98063.47;4153469;28;20711;-92
2022/06/25 07:23:48;;;;;;;2.17;1.80;;;;;;;27.72;66.71;98061.78;4144394;28;20735;-91
2022/06/25 07:25:51;;;;;;;2.13;1.90;;;;;;;27.75;67.01;98058.66;4129192;28;20644;-92
2022/06/25 07:27:55;;;;;;;2.30;1.60;;;;;;;27.71;68.71;98060.13;4119658;28;20632;-92
2022/06/25 07:29:58;;;;;;;2.70;2.00;;;;;;;27.80;67.39;98053.47;4122404;28;20772;-94
2022/06/25 07:32:01;;;;;;;6.03;5.53;;;;;;;27.86;65.95;98056.16;4128697;28;20720;-93
2022/06/25 07:34:04;;;;;;;5.50;4.60;;;;;;;27.89;66.76;98049.53;4122368;28;20657;-91
2022/06/25 07:36:08;;;;;;;2.60;2.20;;;;;;;27.96;67.05;98051.13;4139510;28;20740;-93
2022/06/25 07:38:12;;;;;;;5.77;1.93;;;;;;;28.00;65.08;98054.25;4124845;28;20638;-92
2022/06/25 07:40:15;;;;;;;2.27;1.93;;;;;;;28.13;66.40;98052.31;4125216;28;20738;-93
2022/06/25 07:42:19;;;;;;;2.30;1.90;;;;;;;28.24;64.08;98051.66;4137073;28;20669;-94
2022/06/25 07:44:22;;;;;;;2.57;1.97;;;;;;;28.42;61.91;98049.06;4130948;28;20857;-91
2022/06/25 07:46:26;;;;;;;2.43;2.10;;;;;;;28.49;63.30;98043.41;4121119;28;20694;-92
2022/06/25 07:48:29;;;;;;;4.53;2.00;;;;;;;28.56;64.52;98040.69;4124695;28;20640;-93
2022/06/25 07:52:54;;;;;;;2.90;1.73;;;;;;;28.72;63.10;98029.44;4123854;28;20644;-93
2022/06/25 07:54:59;;;;;;;4.80;2.20;;;;;;;28.81;63.55;98038.88;4125210;28;20634;-93
2022/06/25 07:57:02;;;;;;;4.50;1.70;;;;;;;28.88;63.30;98035.06;4127159;28;22133;-94
2022/06/25 07:59:05;;;;;;;3.10;1.87;;;;;;;29.00;64.55;98036.81;4130729;28;20645;-93
2022/06/25 08:01:08;;;;;;;4.10;2.17;;;;;;;28.88;64.86;98032.38;4130724;28;20647;-92
2022/06/25 08:03:12;;;;;;;3.07;2.10;;;;;;;28.87;62.84;98024.53;4129462;28;20620;-91
2022/06/25 08:05:16;;;;;;;2.60;2.20;;;;;;;28.79;63.26;98030.19;4125531;28;20640;-93
2022/06/25 08:07:19;;;;;;;3.00;2.70;;;;;;;28.67;62.73;98022.03;4141301;28;20642;-93
2022/06/25 08:09:24;;;;;;;3.90;3.33;;;;;;;28.53;65.10;98012.38;4125807;28;20673;-93
2022/06/25 08:11:28;;;;;;;3.90;2.40;;;;;;;28.31;63.54;98015.69;4127457;28;20746;-92
2022/06/25 08:13:33;;;;;;;2.30;2.00;;;;;;;28.27;63.93;98005.59;4119108;28;20653;-93
2022/06/25 08:15:36;;;;;;;3.10;2.10;;;;;;;28.38;63.70;98013.75;4121513;28;21021;-93
2022/06/25 08:17:39;;;;;;;2.90;2.50;;;;;;;28.55;63.74;98006.81;4129344;28;20734;-93
2022/06/25 08:19:43;;;;;;;3.20;2.20;;;;;;;28.55;61.95;98006.81;4126320;28;20647;-93
2022/06/25 08:21:46;;;;;;;2.67;2.40;;;;;;;28.62;64.04;98013.75;4128355;28;21266;-94
2022/06/25 08:23:50;;;;;;;3.60;2.10;;;;;;;28.43;61.63;98016.63;4132952;28;20630;-93
2022/06/25 08:25:53;;;;;;;2.57;2.27;;;;;;;27.84;63.02;98001.06;4125469;28;21434;-93
2022/06/25 08:28:00;;;;;;;2.87;2.30;;;;;;;27.39;62.99;97999.38;4133625;28;20631;-93
2022/06/25 08:30:04;;;;;;;3.20;2.43;;;;;;;27.12;65.85;97988.94;4143328;28;21216;-93
2022/06/25 08:32:08;;;;;;;4.63;2.63;;;;;;;27.39;66.08;98004.72;4123918;28;20651;-93
2022/06/25 08:34:11;;;;;;;3.40;2.40;;;;;;;27.61;65.23;98001.59;4125173;28;20719;-94
2022/06/25 08:36:15;;;;;;;2.80;2.50;;;;;;;27.65;65.62;98005.50;4150286;28;20653;-93
2022/06/25 08:38:19;;;;;;;2.67;2.43;;;;;;;27.48;68.50;98002.66;4156648;28;20621;-94
2022/06/25 08:40:22;;;;;;;2.73;2.23;;;;;;;27.62;64.45;98005.09;4143628;28;20629;-93
2022/06/25 08:42:25;;;;;;;2.80;2.43;;;;;;;27.90;65.63;98005.56;4124256;28;20762;-93
2022/06/25 08:44:31;;;;;;;3.77;2.77;;;;;;;28.15;65.17;98004.63;4142383;28;20645;-91
2022/06/25 08:46:35;;;;;;;2.70;2.40;;;;;;;28.36;64.02;98009.66;4156268;28;20637;-94
2022/06/25 08:48:40;;;;;;;3.57;2.47;;;;;;;28.50;61.65;98001.28;4127104;28;20639;-94
2022/06/25 08:50:44;;;;;;;3.70;2.90;;;;;;;28.16;64.57;98007.09;4140457;28;20674;-93
2022/06/25 08:52:49;;;;;;;3.83;2.53;;;;;;;27.79;64.85;97998.22;4130320;28;20714;-92
2022/06/25 08:54:54;;;;;;;3.10;2.40;;;;;;;27.40;67.15;97995.66;4140990;28;20629;-91
2022/06/25 08:56:58;;;;;;;3.83;2.50;;;;;;;27.10;68.86;97993.69;4141621;28;21091;-89
2022/06/25 08:59:01;;;;;;;3.17;2.30;;;;;;;26.83;66.38;97988.56;4121967;28;20733;-89
2022/06/25 09:01:06;;;;;;;4.50;2.80;;;;;;;26.66;68.60;97990.84;4135885;28;20692;-93
2022/06/25 09:03:10;;;;;;;6.10;2.40;;;;;;;27.08;68.26;97993.91;4139675;28;20759;-94
2022/06/25 09:05:13;;;;;;;5.43;3.20;;;;;;;27.52;65.75;97991.31;4126480;28;20732;-94
2022/06/25 09:07:20;;;;;;;3.50;2.60;;;;;;;27.86;68.10;97990.94;4136220;28;20638;-91
2022/06/25 09:09:24;;;;;;;3.73;2.93;;;;;;;28.03;67.70;97987.53;4155005;28;21232;-94
2022/06/25 09:11:27;;;;;;;4.03;2.60;;;;;;;28.18;67.24;97986.22;4134865;28;20746;-95
2022/06/25 09:13:31;;;;;;;2.70;2.50;;;;;;;28.31;65.99;97980.78;4131944;28;20737;-94
2022/06/25 09:15:37;;;;;;;6.37;3.30;;;;;;;28.47;67.42;97980.22;4132234;28;20661;-95
2022/06/25 09:17:49;;;;;;;3.17;2.73;;;;;;;28.52;65.25;97981.22;4127848;28;20648;-94
2022/06/25 09:19:54;;;;;;;2.90;2.63;;;;;;;28.57;65.77;97981.38;4122079;28;20643;-95
2022/06/25 09:21:58;;;;;;;5.63;2.80;;;;;;;28.37;62.90;97982.59;4130980;28;20688;-94
2022/06/25 09:24:01;;;;;;;6.47;3.00;;;;;;;28.33;64.43;97976.00;4122670;28;20634;-94
2022/06/25 09:26:06;;;;;;;3.57;3.10;;;;;;;28.34;64.83;97977.66;4128488;28;20714;-95
2022/06/25 09:28:10;;;;;;;3.60;2.30;;;;;;;28.06;63.76;97977.19;4126639;28;20648;-95
2022/06/25 09:30:16;;;;;;;2.97;2.40;;;;;;;27.59;64.05;97970.69;4126486;28;20631;-93
2022/06/25 09:32:19;;;;;;;3.53;2.77;;;;;;;27.23;66.57;97967.69;4122634;28;20673;-95
2022/06/25 09:34:33;;;;;;;3.10;2.80;;;;;;;27.27;65.21;97973.44;4120345;28;20686;-94
2022/06/25 09:36:37;;;;;;;4.00;2.90;;;;;;;27.08;64.34;97967.13;4124846;28;20646;-93
2022/06/25 09:38:49;;;;;;;3.85;3.45;;;;;;;26.84;66.07;97953.53;4125317;28;20760;-94
2022/06/25 09:41:12;;;;;;;3.63;2.70;;;;;;;26.96;66.18;97969.81;4151174;28;20300;-93
2022/06/25 09:43:17;;;;;;;2.90;2.60;;;;;;;27.22;67.12;97963.34;4126348;28;20748;-95
2022/06/25 09:45:21;;;;;;;4.27;3.40;;;;;;;27.19;64.48;97969.13;4126726;28;20721;-92
2022/06/25 09:47:25;;;;;;;3.30;3.00;;;;;;;27.17;67.03;97963.16;4132298;28;20634;-94
2022/06/25 09:49:30;;;;;;;3.50;2.80;;;;;;;27.34;65.43;97964.34;4136503;28;20828;-94
2022/06/25 09:51:33;;;;;;;6.83;3.03;;;;;;;27.43;68.22;97964.94;4140158;28;20630;-94
2022/06/25 09:53:46;;;;;;;3.07;2.63;;;;;;;27.60;67.91;97962.41;4120384;28;20641;-94
2022/06/25 09:55:51;;;;;;;3.23;2.87;;;;;;;27.79;67.89;97966.03;4124400;28;20628;-93
2022/06/25 09:57:55;;;;;;;4.33;3.00;;;;;;;28.03;64.94;97960.72;4128031;28;20671;-95
2022/06/25 10:00:01;;;;;;;3.63;2.70;;;;;;;28.18;64.75;97962.06;4127233;28;20736;-94
2022/06/25 10:02:12;;;;;;;3.37;2.63;;;;;;;28.21;63.40;97958.97;4139294;28;21280;-94
2022/06/25 10:04:16;;;;;;;5.53;2.80;;;;;;;28.04;62.74;97965.88;4143170;28;20643;-95